createdAt,value
2022-09-11T00:01:40.481Z,16.70
2022-09-11T00:04:09.344Z,16.70
2022-09-11T00:06:36.419Z,16.70
2022-09-11T00:09:07.638Z,16.70
2022-09-11T00:11:43.011Z,16.70
2022-09-11T00:14:13.920Z,16.60
2022-09-11T00:16:45.089Z,16.60
2022-09-11T00:19:19.535Z,16.60
2022-09-11T00:21:47.282Z,16.60
2022-09-11T00:24:14.282Z,16.50
2022-09-11T00:26:42.588Z,16.60
2022-09-11T00:29:10.824Z,16.60
2022-09-11T00:31:38.673Z,16.60
2022-09-11T00:34:07.094Z,16.60
2022-09-11T00:36:36.426Z,16.50
2022-09-11T00:39:04.036Z,16.60
2022-09-11T00:41:42.952Z,16.60
2022-09-11T00:44:16.859Z,16.60
2022-09-11T00:47:05.438Z,16.50
2022-09-11T00:50:19.310Z,16.50
2022-09-11T00:52:58.152Z,16.50
2022-09-11T00:55:35.499Z,16.50
2022-09-11T00:58:15.575Z,16.50
2022-09-11T01:00:45.217Z,16.50
2022-09-11T01:03:12.989Z,16.50
2022-09-11T01:05:43.494Z,16.50
2022-09-11T01:08:10.635Z,16.50
2022-09-11T01:11:28.767Z,16.50
2022-09-11T01:14:21.977Z,16.50
2022-09-11T01:17:05.292Z,16.50
2022-09-11T01:20:25.423Z,16.60
2022-09-11T01:23:13.643Z,16.60
2022-09-11T01:26:15.008Z,16.60
2022-09-11T01:29:02.916Z,16.60
2022-09-11T01:31:41.930Z,16.60
2022-09-11T01:34:27.417Z,16.60
2022-09-11T01:37:06.855Z,16.60
2022-09-11T01:39:50.085Z,16.60
2022-09-11T01:42:20.989Z,16.60
2022-09-11T01:44:54.789Z,16.60
2022-09-11T01:47:22.406Z,16.60
2022-09-11T01:50:03.515Z,16.60
2022-09-11T01:53:02.086Z,16.60
2022-09-11T01:55:42.843Z,16.60
2022-09-11T01:58:21.172Z,16.60
2022-09-11T02:00:53.912Z,16.60
2022-09-11T02:03:27.263Z,16.60
2022-09-11T02:06:03.028Z,16.60
2022-09-11T02:08:54.563Z,16.70
2022-09-11T02:11:22.229Z,16.70
2022-09-11T02:13:49.142Z,16.70
2022-09-11T02:16:26.485Z,16.70
2022-09-11T02:19:02.884Z,16.70
2022-09-11T02:21:34.474Z,16.70
2022-09-11T02:24:02.440Z,16.70
2022-09-11T02:26:33.753Z,16.70
2022-09-11T02:29:03.815Z,16.70
2022-09-11T02:31:31.350Z,16.70
2022-09-11T02:33:58.878Z,16.70
2022-09-11T02:36:32.330Z,16.70
2022-09-11T02:39:05.666Z,16.70
2022-09-11T02:42:31.203Z,16.70
2022-09-11T02:45:39.194Z,16.60
2022-09-11T02:48:30.832Z,16.70
2022-09-11T02:51:17.356Z,16.70
2022-09-11T02:54:36.299Z,16.70
2022-09-11T02:57:13.855Z,16.70
2022-09-11T03:00:01.124Z,16.70
2022-09-11T03:02:34.965Z,16.70
2022-09-11T03:05:02.121Z,16.60
2022-09-11T03:07:29.881Z,16.60
2022-09-11T03:10:00.380Z,16.60
2022-09-11T03:12:27.504Z,16.70
2022-09-11T03:14:54.838Z,16.60
2022-09-11T03:17:22.502Z,16.70
2022-09-11T03:19:49.905Z,16.70
2022-09-11T03:22:17.449Z,16.70
2022-09-11T03:24:45.120Z,16.70
2022-09-11T03:27:12.384Z,16.70
2022-09-11T03:29:42.750Z,16.70
2022-09-11T03:32:10.157Z,16.70
2022-09-11T03:34:37.298Z,16.70
2022-09-11T03:37:04.953Z,16.70
2022-09-11T03:39:35.150Z,16.70
2022-09-11T03:42:02.277Z,16.80
2022-09-11T03:44:29.524Z,16.70
2022-09-11T03:46:57.293Z,16.70
2022-09-11T03:49:24.381Z,16.70
2022-09-11T03:51:51.905Z,16.70
2022-09-11T03:54:20.971Z,16.70
2022-09-11T03:56:48.491Z,16.60
2022-09-11T03:59:15.725Z,16.70
2022-09-11T04:01:43.044Z,16.70
2022-09-11T04:04:10.152Z,16.60
2022-09-11T04:06:37.398Z,16.60
2022-09-11T04:09:08.956Z,16.70
2022-09-11T04:11:39.005Z,16.70
2022-09-11T04:14:07.789Z,16.70
2022-09-11T04:16:35.810Z,16.60
2022-09-11T04:19:03.668Z,16.60
2022-09-11T04:21:34.858Z,16.60
2022-09-11T04:24:05.375Z,16.60
2022-09-11T04:26:33.638Z,16.60
2022-09-11T04:29:01.460Z,16.60
2022-09-11T04:31:29.064Z,16.60
2022-09-11T04:33:57.977Z,16.60
2022-09-11T04:36:27.048Z,16.60
2022-09-11T04:39:00.149Z,16.60
2022-09-11T04:41:28.834Z,16.60
2022-09-11T04:44:03.789Z,16.50
2022-09-11T04:46:32.113Z,16.50
2022-09-11T04:48:59.490Z,16.60
2022-09-11T04:51:36.581Z,16.50
2022-09-11T04:54:05.236Z,16.50
2022-09-11T04:56:37.885Z,16.50
2022-09-11T04:59:26.838Z,16.50
2022-09-11T05:01:54.699Z,16.50
2022-09-11T05:04:26.524Z,16.50
2022-09-11T05:06:53.987Z,16.60
2022-09-11T05:09:27.671Z,16.60
2022-09-11T05:11:54.871Z,16.60
2022-09-11T05:14:22.510Z,16.60
2022-09-11T05:16:49.691Z,16.60
2022-09-11T05:19:16.775Z,16.70
2022-09-11T05:21:44.089Z,16.70
2022-09-11T05:24:11.593Z,16.70
2022-09-11T05:26:38.780Z,16.70
2022-09-11T05:29:11.631Z,16.70
2022-09-11T05:31:39.482Z,16.70
2022-09-11T05:34:07.424Z,16.70
2022-09-11T05:36:38.070Z,16.80
2022-09-11T05:39:05.278Z,16.80
2022-09-11T05:41:32.534Z,16.80
2022-09-11T05:43:59.702Z,16.90
2022-09-11T05:46:26.914Z,16.90
2022-09-11T05:48:53.993Z,16.90
2022-09-11T05:51:22.804Z,16.90
2022-09-11T05:53:56.784Z,17.00
2022-09-11T05:56:26.034Z,17.00
2022-09-11T05:58:53.314Z,17.00
2022-09-11T06:01:23.694Z,16.90
2022-09-11T06:03:51.206Z,17.00
2022-09-11T06:06:21.991Z,17.00
2022-09-11T06:08:53.041Z,17.00
2022-09-11T06:11:22.096Z,17.00
2022-09-11T06:13:50.060Z,17.00
2022-09-11T06:16:24.209Z,17.00
2022-09-11T06:18:53.376Z,17.00
2022-09-11T06:21:27.228Z,17.00
2022-09-11T06:23:54.543Z,17.10
2022-09-11T06:26:25.531Z,17.10
2022-09-11T06:28:56.294Z,17.10
2022-09-11T06:31:26.139Z,17.10
2022-09-11T06:33:54.603Z,17.00
2022-09-11T06:36:27.094Z,17.00
2022-09-11T06:38:56.465Z,17.00
2022-09-11T06:41:25.326Z,17.10
2022-09-11T06:43:53.615Z,17.10
2022-09-11T06:46:25.934Z,17.00
2022-09-11T06:48:55.051Z,17.10
2022-09-11T06:51:23.999Z,17.10
2022-09-11T06:53:58.659Z,17.10
2022-09-11T06:56:26.343Z,17.10
2022-09-11T06:58:53.654Z,17.10
2022-09-11T07:01:22.561Z,17.10
2022-09-11T07:03:53.162Z,17.10
2022-09-11T07:06:26.782Z,17.10
2022-09-11T07:09:01.582Z,17.20
2022-09-11T07:11:34.501Z,17.20
2022-09-11T07:14:05.846Z,17.10
2022-09-11T07:16:36.686Z,17.10
2022-09-11T07:19:04.795Z,17.10
2022-09-11T07:21:35.580Z,17.10
2022-09-11T07:24:04.225Z,17.10
2022-09-11T07:26:31.613Z,17.10
2022-09-11T07:28:59.740Z,17.10
2022-09-11T07:31:32.842Z,17.10
2022-09-11T07:34:00.739Z,17.00
2022-09-11T07:36:33.305Z,17.10
2022-09-11T07:39:00.939Z,17.10
2022-09-11T07:41:29.025Z,17.10
2022-09-11T07:43:59.847Z,17.10
2022-09-11T07:46:27.374Z,17.10
2022-09-11T07:48:57.726Z,17.10
2022-09-11T07:51:26.927Z,17.10
2022-09-11T07:53:57.927Z,17.10
2022-09-11T07:56:27.690Z,17.10
2022-09-11T07:58:56.092Z,17.20
2022-09-11T08:01:26.974Z,17.20
2022-09-11T08:04:00.465Z,17.30
2022-09-11T08:06:31.510Z,17.30
2022-09-11T08:09:05.175Z,17.30
2022-09-11T08:11:36.484Z,17.40
2022-09-11T08:14:04.190Z,17.40
2022-09-11T08:16:31.594Z,17.50
2022-09-11T08:19:02.271Z,17.50
2022-09-11T08:21:32.798Z,17.60
2022-09-11T08:24:00.423Z,17.70
2022-09-11T08:26:30.990Z,17.70
2022-09-11T08:29:00.022Z,17.80
2022-09-11T08:31:28.314Z,17.90
2022-09-11T08:33:57.132Z,17.90
2022-09-11T08:36:27.928Z,18.00
2022-09-11T08:38:55.995Z,18.10
2022-09-11T08:42:04.175Z,18.20
2022-09-11T08:44:56.744Z,18.30
2022-09-11T08:47:32.675Z,18.50
2022-09-11T08:50:22.084Z,18.60
2022-09-11T08:52:50.123Z,18.70
2022-09-11T08:55:35.524Z,18.70
2022-09-11T08:58:52.514Z,18.80
2022-09-11T09:01:30.569Z,18.70
2022-09-11T09:04:07.784Z,18.70
2022-09-11T09:06:34.698Z,18.70
2022-09-11T09:09:01.894Z,18.80
2022-09-11T09:11:46.853Z,18.90
2022-09-11T09:14:42.647Z,19.00
2022-09-11T09:17:22.029Z,19.20
2022-09-11T09:20:13.373Z,19.20
2022-09-11T09:22:51.365Z,19.20
2022-09-11T09:25:22.893Z,19.20
2022-09-11T09:28:41.592Z,19.20
2022-09-11T09:31:15.002Z,19.20
2022-09-11T09:34:31.200Z,19.30
2022-09-11T09:37:20.152Z,19.40
2022-09-11T09:39:48.082Z,19.60
2022-09-11T09:42:44.085Z,19.70
2022-09-11T09:45:20.305Z,19.80
2022-09-11T09:47:49.077Z,19.90
2022-09-11T09:50:34.335Z,20.00
2022-09-11T09:53:36.079Z,20.10
2022-09-11T09:56:06.095Z,20.20
2022-09-11T09:58:40.861Z,20.10
2022-09-11T10:01:46.402Z,20.00
2022-09-11T10:04:17.144Z,19.90
2022-09-11T10:06:47.775Z,19.80
2022-09-11T10:09:29.654Z,19.70
2022-09-11T10:12:06.351Z,19.60
2022-09-11T10:15:01.415Z,19.40
2022-09-11T10:17:29.571Z,19.30
2022-09-11T10:20:23.657Z,19.20
2022-09-11T10:22:52.191Z,19.10
2022-09-11T10:25:29.891Z,19.00
2022-09-11T10:28:15.180Z,19.00
2022-09-11T10:31:03.200Z,19.00
2022-09-11T10:33:33.929Z,19.00
2022-09-11T10:36:05.879Z,18.90
2022-09-11T10:38:45.221Z,18.90
2022-09-11T10:41:12.985Z,18.90
2022-09-11T10:44:01.572Z,18.90
2022-09-11T10:46:40.819Z,18.90
2022-09-11T10:49:23.346Z,19.00
2022-09-11T10:52:03.075Z,19.10
2022-09-11T10:54:52.245Z,19.20
2022-09-11T10:57:34.544Z,19.40
2022-09-11T11:00:30.368Z,19.60
2022-09-11T11:03:12.916Z,19.60
2022-09-11T11:06:13.431Z,19.60
2022-09-11T11:09:16.976Z,19.60
2022-09-11T11:12:19.826Z,19.70
2022-09-11T11:15:19.767Z,19.80
2022-09-11T11:18:11.899Z,20.00
2022-09-11T11:21:08.570Z,20.20
2022-09-11T11:24:32.501Z,20.30
2022-09-11T11:27:19.771Z,20.30
2022-09-11T11:30:11.323Z,20.30
2022-09-11T11:33:10.583Z,20.30
2022-09-11T11:36:02.301Z,20.20
2022-09-11T11:38:37.221Z,20.20
2022-09-11T11:41:23.987Z,20.30
2022-09-11T11:43:53.294Z,20.30
2022-09-11T11:46:38.764Z,20.20
2022-09-11T11:49:15.247Z,20.20
2022-09-11T11:52:26.684Z,20.30
2022-09-11T11:55:02.908Z,20.20
2022-09-11T11:57:41.602Z,20.30
2022-09-11T12:00:17.035Z,20.50
2022-09-11T12:02:49.513Z,20.70
2022-09-11T12:05:32.547Z,20.90
2022-09-11T12:08:03.316Z,21.00
2022-09-11T12:10:40.953Z,21.10
2022-09-11T12:13:16.704Z,21.20
2022-09-11T12:16:24.657Z,21.40
2022-09-11T12:19:13.349Z,21.60
2022-09-11T12:22:06.631Z,21.50
2022-09-11T12:24:52.470Z,21.40
2022-09-11T12:27:37.363Z,21.20
2022-09-11T12:30:16.571Z,21.20
2022-09-11T12:32:53.446Z,21.10
2022-09-11T12:35:50.444Z,21.10
2022-09-11T12:38:39.700Z,21.10
2022-09-11T12:41:25.875Z,21.20
2022-09-11T12:43:55.065Z,21.40
2022-09-11T12:46:22.012Z,21.50
2022-09-11T12:49:20.456Z,21.60
2022-09-11T12:51:59.568Z,21.80
2022-09-11T12:54:39.097Z,22.00
2022-09-11T12:57:15.964Z,22.20
2022-09-11T12:59:55.820Z,22.40
2022-09-11T13:02:30.648Z,22.40
2022-09-11T13:04:58.227Z,22.40
2022-09-11T13:08:00.773Z,22.50
2022-09-11T13:10:37.975Z,22.60
2022-09-11T13:13:29.883Z,22.80
2022-09-11T13:15:58.677Z,22.90
2022-09-11T13:18:35.179Z,23.10
2022-09-11T13:21:11.442Z,23.20
2022-09-11T13:23:48.119Z,23.30
2022-09-11T13:26:31.349Z,23.40
2022-09-11T13:29:01.356Z,23.50
2022-09-11T13:31:35.557Z,23.40
2022-09-11T13:34:12.046Z,23.50
2022-09-11T13:36:40.776Z,23.60
2022-09-11T13:39:09.573Z,23.70
2022-09-11T13:41:40.875Z,23.70
2022-09-11T13:44:30.426Z,23.90
2022-09-11T13:46:58.318Z,24.00
2022-09-11T13:49:39.072Z,24.20
2022-09-11T13:52:12.727Z,24.20
2022-09-11T13:54:57.349Z,24.20
2022-09-11T13:57:31.976Z,24.30
2022-09-11T14:00:00.435Z,24.40
2022-09-11T14:02:50.025Z,24.60
2022-09-11T14:05:20.834Z,24.60
2022-09-11T14:08:04.794Z,24.60
2022-09-11T14:10:47.429Z,24.80
2022-09-11T14:13:33.873Z,24.90
2022-09-11T14:16:16.303Z,24.70
2022-09-11T14:19:08.261Z,24.70
2022-09-11T14:21:43.817Z,24.70
2022-09-11T14:24:33.705Z,24.60
2022-09-11T14:27:04.521Z,24.70
2022-09-11T14:29:36.307Z,24.80
2022-09-11T14:32:31.348Z,24.90
2022-09-11T14:35:00.522Z,25.10
2022-09-11T14:37:32.174Z,25.20
2022-09-11T14:40:15.534Z,25.30
2022-09-11T14:42:47.103Z,25.40
2022-09-11T14:45:24.552Z,25.50
2022-09-11T14:47:54.703Z,25.50
2022-09-11T14:50:22.683Z,25.40
2022-09-11T14:52:49.749Z,25.30
2022-09-11T14:55:20.201Z,25.10
2022-09-11T14:57:47.950Z,24.90
2022-09-11T15:00:19.569Z,24.70
2022-09-11T15:02:47.776Z,24.40
2022-09-11T15:05:21.857Z,23.90
2022-09-11T15:07:49.153Z,23.60
2022-09-11T15:10:16.447Z,23.20
2022-09-11T15:12:44.660Z,23.00
2022-09-11T15:15:11.709Z,22.80
2022-09-11T15:17:39.260Z,22.70
2022-09-11T15:20:09.251Z,22.60
2022-09-11T15:22:39.927Z,22.50
2022-09-11T15:25:08.165Z,22.30
2022-09-11T15:27:35.459Z,22.20
2022-09-11T15:30:03.722Z,22.10
2022-09-11T15:32:31.489Z,21.90
2022-09-11T15:34:58.640Z,21.80
2022-09-11T15:37:26.335Z,21.70
2022-09-11T15:39:53.582Z,21.60
2022-09-11T15:42:20.739Z,21.50
2022-09-11T15:44:47.989Z,21.50
2022-09-11T15:47:15.129Z,21.40
2022-09-11T15:49:44.561Z,21.20
2022-09-11T15:52:11.885Z,20.80
2022-09-11T15:54:39.115Z,20.10
2022-09-11T15:57:07.510Z,19.40
2022-09-11T15:59:34.613Z,18.80
2022-09-11T16:02:01.941Z,18.40
2022-09-11T16:04:32.234Z,18.10
2022-09-11T16:07:02.724Z,17.90
2022-09-11T16:09:32.335Z,17.70
2022-09-11T16:12:01.689Z,17.50
2022-09-11T16:14:32.874Z,17.40
2022-09-11T16:17:02.399Z,17.30
2022-09-11T16:19:30.700Z,17.20
2022-09-11T16:22:03.691Z,17.10
2022-09-11T16:24:35.558Z,17.00
2022-09-11T16:27:05.496Z,16.90
2022-09-11T16:30:09.031Z,16.80
2022-09-11T16:32:28.489Z,16.80
2022-09-11T16:34:57.691Z,16.80
2022-09-11T16:37:26.110Z,16.70
2022-09-11T16:39:53.475Z,16.70
2022-09-11T16:42:23.796Z,16.60
2022-09-11T16:44:51.121Z,16.70
2022-09-11T16:47:18.263Z,16.60
2022-09-11T16:50:06.319Z,16.60
2022-09-11T16:52:34.841Z,16.60
2022-09-11T16:55:07.633Z,16.50
2022-09-11T16:57:35.008Z,16.50
2022-09-11T17:00:07.835Z,16.50
2022-09-11T17:02:35.009Z,16.50
2022-09-11T17:05:07.758Z,16.50
2022-09-11T17:07:36.077Z,16.40
2022-09-11T17:10:04.390Z,16.40
2022-09-11T17:12:32.454Z,16.40
2022-09-11T17:14:59.719Z,16.40
2022-09-11T17:17:26.760Z,16.40
2022-09-11T17:19:54.625Z,16.40
2022-09-11T17:22:21.727Z,16.30
2022-09-11T17:24:48.876Z,16.30
2022-09-11T17:27:16.074Z,16.30
2022-09-11T17:29:44.932Z,16.30
2022-09-11T17:32:31.132Z,16.30
2022-09-11T17:34:58.913Z,16.30
2022-09-11T17:37:27.047Z,16.20
2022-09-11T17:39:54.576Z,16.20
2022-09-11T17:42:22.907Z,16.20
2022-09-11T17:44:50.415Z,16.20
2022-09-11T17:47:17.662Z,16.20
2022-09-11T17:49:45.442Z,16.20
2022-09-11T17:52:13.943Z,16.20
2022-09-11T17:54:41.016Z,16.10
2022-09-11T17:57:12.190Z,16.10
2022-09-11T17:59:40.117Z,16.20
2022-09-11T18:02:07.472Z,16.20
2022-09-11T18:04:34.612Z,16.20
2022-09-11T18:07:02.229Z,16.20
2022-09-11T18:09:29.684Z,16.20
2022-09-11T18:11:57.189Z,16.10
2022-09-11T18:14:27.613Z,16.20
2022-09-11T18:16:55.429Z,16.20
2022-09-11T18:19:23.577Z,16.20
2022-09-11T18:21:51.811Z,16.20
2022-09-11T18:24:20.964Z,16.20
2022-09-11T18:26:58.615Z,16.20
2022-09-11T18:29:30.264Z,16.20
2022-09-11T18:31:59.887Z,16.20
2022-09-11T18:34:28.974Z,16.10
2022-09-11T18:36:56.338Z,16.20
2022-09-11T18:39:24.285Z,16.10
2022-09-11T18:41:55.319Z,16.10
2022-09-11T18:44:24.973Z,16.10
2022-09-11T18:46:56.269Z,16.20
2022-09-11T18:49:24.014Z,16.20
2022-09-11T18:51:52.048Z,16.20
2022-09-11T18:54:21.344Z,16.20
2022-09-11T18:56:50.566Z,16.20
2022-09-11T18:59:20.414Z,16.20
2022-09-11T19:01:48.071Z,16.20
2022-09-11T19:04:17.254Z,16.20
2022-09-11T19:06:48.376Z,16.10
2022-09-11T19:09:16.026Z,16.10
2022-09-11T19:11:43.481Z,16.10
2022-09-11T19:14:12.329Z,16.10
2022-09-11T19:16:40.358Z,16.10
2022-09-11T19:19:09.135Z,16.10
2022-09-11T19:21:40.198Z,16.10
2022-09-11T19:24:08.067Z,16.10
2022-09-11T19:26:39.200Z,16.00
2022-09-11T19:29:12.712Z,16.00
2022-09-11T19:31:43.564Z,16.00
2022-09-11T19:34:14.098Z,16.00
2022-09-11T19:36:42.049Z,16.00
2022-09-11T19:39:11.658Z,16.00
2022-09-11T19:41:40.005Z,16.00
2022-09-11T19:44:12.599Z,16.00
2022-09-11T19:46:41.813Z,16.00
2022-09-11T19:49:10.657Z,16.00
2022-09-11T19:51:42.196Z,16.00
2022-09-11T19:54:11.920Z,16.00
2022-09-11T19:56:44.480Z,16.00
2022-09-11T19:59:15.163Z,16.00
2022-09-11T20:01:43.401Z,15.90
2022-09-11T20:04:12.541Z,15.90
2022-09-11T20:11:57.308Z,15.90
2022-09-11T20:14:24.523Z,15.90
2022-09-11T20:16:51.673Z,15.90
2022-09-11T20:19:20.125Z,15.80
2022-09-11T20:21:50.753Z,15.80
2022-09-11T20:24:19.773Z,15.80
2022-09-11T20:26:53.702Z,15.80
2022-09-11T20:29:20.717Z,15.80
2022-09-11T20:31:51.147Z,15.80
2022-09-11T20:34:19.831Z,15.70
2022-09-11T20:36:47.690Z,15.70
2022-09-11T20:39:17.816Z,15.70
2022-09-11T20:41:45.010Z,15.70
2022-09-11T20:44:12.368Z,15.70
2022-09-11T20:46:40.518Z,15.70
2022-09-11T20:49:07.748Z,15.60
2022-09-11T20:51:35.374Z,15.60
2022-09-11T20:54:02.661Z,15.60
2022-09-11T20:56:30.165Z,15.60
2022-09-11T20:58:57.885Z,15.60
2022-09-11T21:01:27.275Z,15.60
2022-09-11T21:03:57.905Z,15.60
2022-09-11T21:06:31.608Z,15.50
2022-09-11T21:09:05.681Z,15.50
2022-09-11T21:11:33.189Z,15.50
2022-09-11T21:14:05.015Z,15.50
2022-09-11T21:16:32.718Z,15.50
2022-09-11T21:19:04.751Z,15.50
2022-09-11T21:21:33.605Z,15.40
2022-09-11T21:24:04.706Z,15.50
2022-09-11T21:26:33.407Z,15.50
2022-09-11T21:29:04.753Z,15.40
2022-09-11T21:31:32.007Z,15.40
2022-09-11T21:34:00.624Z,15.40
2022-09-11T21:36:28.314Z,15.40
2022-09-11T21:38:55.713Z,15.40
2022-09-11T21:41:23.078Z,15.40
2022-09-11T21:43:50.433Z,15.30
2022-09-11T21:46:17.711Z,15.30
2022-09-11T21:48:44.776Z,15.30
2022-09-11T21:51:17.658Z,15.30
2022-09-11T21:53:47.233Z,15.30
2022-09-11T21:56:25.033Z,15.30
2022-09-11T21:58:53.681Z,15.30
2022-09-11T22:01:22.910Z,15.30
2022-09-11T22:03:51.610Z,15.20
2022-09-11T22:06:20.499Z,15.20
2022-09-11T22:08:47.689Z,15.20
2022-09-11T22:11:18.444Z,15.20
2022-09-11T22:13:47.790Z,15.10
2022-09-11T22:16:18.348Z,15.10
2022-09-11T22:18:50.537Z,15.10
2022-09-11T22:21:18.058Z,15.10
2022-09-11T22:23:45.442Z,15.10
2022-09-11T22:26:20.726Z,15.10
2022-09-11T22:28:48.452Z,15.10
2022-09-11T22:31:24.020Z,15.10
2022-09-11T22:33:52.778Z,15.00
2022-09-11T22:36:29.524Z,15.00
2022-09-11T22:38:59.085Z,15.00
2022-09-11T22:41:27.484Z,15.00
2022-09-11T22:43:55.210Z,15.00
2022-09-11T22:46:23.762Z,15.00
2022-09-11T22:48:51.398Z,15.00
2022-09-11T22:51:22.199Z,15.00
2022-09-11T22:53:49.483Z,14.90
2022-09-11T22:56:17.098Z,14.90
2022-09-11T22:58:44.232Z,14.90
2022-09-11T23:01:16.771Z,14.90
2022-09-11T23:03:47.017Z,14.90
2022-09-11T23:06:33.170Z,14.90
2022-09-11T23:09:07.750Z,14.80
2022-09-11T23:11:38.391Z,14.90
2022-09-11T23:14:13.862Z,14.80
2022-09-11T23:16:41.395Z,14.80
2022-09-11T23:19:12.117Z,14.70
2022-09-11T23:21:39.312Z,14.80
2022-09-11T23:24:14.519Z,14.70
2022-09-11T23:26:41.840Z,14.70
2022-09-11T23:29:08.861Z,14.70
2022-09-11T23:31:36.652Z,14.70
2022-09-11T23:34:08.304Z,14.70
2022-09-11T23:36:36.402Z,14.70
2022-09-11T23:39:07.107Z,14.70
2022-09-11T23:41:34.283Z,14.60
2022-09-11T23:44:02.434Z,14.60
2022-09-11T23:46:29.738Z,14.60
2022-09-11T23:49:00.147Z,14.60
2022-09-11T23:51:27.722Z,14.60
2022-09-11T23:53:54.861Z,14.60
2022-09-11T23:56:22.564Z,14.60
2022-09-11T23:58:50.886Z,14.50
